Terminal Aerodrome Forecast
Issued by NWS

Home | Current Version | Previous Version | Graphics & Text | Print | Product List | Glossary On
Versions: 1 2 3 4 5 6 7 8 9 10 11 12 13 14
000
FTUS43 KOAX 290520
TAFCDR
TAF
KCDR 290520Z 2906/3006 VRB03KT P6SM SCT100
     FM290800 13005KT 2SM BR BKN007
     FM291400 06007KT P6SM SCT080
     FM291700 06007KT P6SM SCT150
     FM300100 15008KT P6SM VCTS BKN100CB
     FM300400 20008KT P6SM BKN100=

USA.gov is the U.S. government's official web portal to all federal, state and local government web resources and services.